createdAt,value
2019-02-21T00:01:23.466Z,102260.52
2019-02-21T00:03:56.713Z,102260.50
2019-02-21T00:06:29.941Z,102269.06
2019-02-21T00:09:04.510Z,102270.81
2019-02-21T00:11:37.826Z,102269.91
2019-02-21T00:14:11.073Z,102269.46
2019-02-21T00:16:44.294Z,102273.75
2019-02-21T00:19:17.583Z,102281.07
2019-02-21T00:21:50.826Z,102273.30
2019-02-21T00:24:24.075Z,102274.59
2019-02-21T00:26:57.302Z,102282.28
2019-02-21T00:29:30.551Z,102287.02
2019-02-21T00:32:03.784Z,102287.78
2019-02-21T00:34:37.034Z,102289.58
2019-02-21T00:37:10.268Z,102288.20
2019-02-21T00:39:43.512Z,102284.29
2019-02-21T00:42:16.735Z,102290.71
2019-02-21T00:44:49.972Z,102282.49
2019-02-21T00:47:23.202Z,102292.41
2019-02-21T00:49:56.457Z,102290.27
2019-02-21T00:52:31.456Z,102292.77
2019-02-21T00:55:05.483Z,102291.45
2019-02-21T00:57:38.718Z,102294.87
2019-02-21T01:00:11.996Z,102299.16
2019-02-21T01:02:45.235Z,102302.62
2019-02-21T01:05:18.472Z,102307.36
2019-02-21T01:07:51.703Z,102304.67
2019-02-21T01:10:24.948Z,102312.48
2019-02-21T01:12:58.177Z,102304.65
2019-02-21T01:15:31.433Z,102305.92
2019-02-21T01:18:04.662Z,102306.70
2019-02-21T01:20:37.915Z,102321.86
2019-02-21T01:23:11.147Z,102328.33
2019-02-21T01:25:44.398Z,102327.48
2019-02-21T01:28:17.892Z,102325.25
2019-02-21T01:30:57.093Z,102324.80
2019-02-21T01:33:26.069Z,102324.32
2019-02-21T01:36:00.291Z,102332.42
2019-02-21T01:38:33.524Z,102327.24
2019-02-21T01:41:06.783Z,102325.50
2019-02-21T01:43:40.007Z,102328.52
2019-02-21T01:46:13.263Z,102334.44
2019-02-21T01:48:46.492Z,102333.56
2019-02-21T01:51:19.746Z,102331.91
2019-02-21T01:53:52.976Z,102333.14
2019-02-21T01:56:26.557Z,102333.11
2019-02-21T01:58:59.790Z,102327.84
2019-02-21T02:01:33.048Z,102326.48
2019-02-21T02:04:06.283Z,102327.33
2019-02-21T02:06:39.533Z,102330.34
2019-02-21T02:09:12.760Z,102326.03
2019-02-21T02:11:46.006Z,102321.66
2019-02-21T02:14:19.233Z,102331.63
2019-02-21T02:16:52.484Z,102325.19
2019-02-21T02:19:25.743Z,102334.61
2019-02-21T02:21:58.970Z,102338.56
2019-02-21T02:24:33.178Z,102331.22
2019-02-21T02:27:06.423Z,102332.84
2019-02-21T02:29:39.655Z,102331.13
2019-02-21T02:32:12.895Z,102325.84
2019-02-21T02:34:46.132Z,102328.02
2019-02-21T02:37:19.383Z,102329.67
2019-02-21T02:39:52.606Z,102321.09
2019-02-21T02:42:25.852Z,102315.40
2019-02-21T02:44:59.076Z,102314.91
2019-02-21T02:47:32.334Z,102308.45
2019-02-21T02:50:06.907Z,102307.48
2019-02-21T02:52:40.159Z,102304.89
2019-02-21T02:55:13.493Z,102295.34
2019-02-21T02:57:46.716Z,102299.68
2019-02-21T03:00:19.949Z,102299.20
2019-02-21T03:02:53.214Z,102298.72
2019-02-21T03:05:26.434Z,102301.33
2019-02-21T03:07:59.671Z,102297.91
2019-02-21T03:10:32.902Z,102308.23
2019-02-21T03:13:06.155Z,102298.23
2019-02-21T03:15:39.384Z,102301.23
2019-02-21T03:18:12.628Z,102305.09
2019-02-21T03:20:45.860Z,102302.05
2019-02-21T03:23:19.128Z,102297.23
2019-02-21T03:25:52.355Z,102304.58
2019-02-21T03:28:25.607Z,102299.33
2019-02-21T03:30:58.845Z,102314.37
2019-02-21T03:33:32.406Z,102310.05
2019-02-21T03:36:05.641Z,102300.53
2019-02-21T03:38:38.892Z,102304.90
2019-02-21T03:41:12.142Z,102296.72
2019-02-21T03:43:45.372Z,102294.52
2019-02-21T03:46:18.612Z,102304.83
2019-02-21T03:48:51.843Z,102299.23
2019-02-21T03:51:25.104Z,102291.47
2019-02-21T03:53:58.346Z,102290.14
2019-02-21T03:56:31.579Z,102303.02
2019-02-21T03:59:04.826Z,102291.34
2019-02-21T04:01:38.056Z,102283.52
2019-02-21T04:04:11.308Z,102291.28
2019-02-21T04:06:44.539Z,102291.70
2019-02-21T04:09:17.789Z,102286.91
2019-02-21T04:11:51.024Z,102282.19
2019-02-21T04:14:24.270Z,102280.02
2019-02-21T04:16:57.498Z,102290.80
2019-02-21T04:19:31.719Z,102289.50
2019-02-21T04:22:05.287Z,102292.83
2019-02-21T04:24:38.543Z,102293.22
2019-02-21T04:27:12.951Z,102292.77
2019-02-21T04:29:46.202Z,102298.75
2019-02-21T04:32:19.445Z,102292.22
2019-02-21T04:34:52.683Z,102288.33
2019-02-21T04:37:25.912Z,102286.81
2019-02-21T04:39:59.162Z,102288.27
2019-02-21T04:42:32.396Z,102287.92
2019-02-21T04:45:06.206Z,102288.75
2019-02-21T04:47:39.448Z,102289.59
2019-02-21T04:50:13.667Z,102240.37
2019-02-21T04:52:46.910Z,102305.41
2019-02-21T04:55:20.153Z,102309.72
2019-02-21T04:57:53.386Z,102308.74
2019-02-21T05:00:26.624Z,102313.39
2019-02-21T05:02:59.858Z,102322.13
2019-02-21T05:05:33.104Z,102318.84
2019-02-21T05:08:06.341Z,102313.86
2019-02-21T05:10:39.588Z,102313.63
2019-02-21T05:13:12.807Z,102320.46
2019-02-21T05:15:46.066Z,102317.80
2019-02-21T05:18:19.293Z,102314.31
2019-02-21T05:20:52.546Z,102310.40
2019-02-21T05:23:25.773Z,102313.31
2019-02-21T05:25:59.020Z,102310.59
2019-02-21T05:28:32.253Z,102298.23
2019-02-21T05:31:05.525Z,102294.94
2019-02-21T05:33:38.749Z,102300.01
2019-02-21T05:36:12.001Z,102294.00
2019-02-21T05:38:45.234Z,102300.53
2019-02-21T05:41:18.489Z,102305.27
2019-02-21T05:43:51.717Z,102306.56
2019-02-21T05:46:25.043Z,102308.00
2019-02-21T05:48:58.629Z,102297.44
2019-02-21T05:51:31.877Z,102298.01
2019-02-21T05:54:05.104Z,102293.45
2019-02-21T05:56:38.368Z,102296.02
2019-02-21T05:59:11.851Z,102294.17
2019-02-21T06:01:45.107Z,102297.22
2019-02-21T06:04:19.389Z,102295.92
2019-02-21T06:06:52.853Z,102293.97
2019-02-21T06:09:26.091Z,102291.65
2019-02-21T06:11:59.352Z,102289.78
2019-02-21T06:14:33.656Z,102290.08
2019-02-21T06:17:06.911Z,102289.62
2019-02-21T06:19:40.151Z,102283.05
2019-02-21T06:22:13.407Z,102284.74
2019-02-21T06:24:46.644Z,102283.00
2019-02-21T06:27:19.897Z,102278.18
2019-02-21T06:29:53.154Z,102271.70
2019-02-21T06:32:26.405Z,102280.77
2019-02-21T06:35:02.432Z,102281.20
2019-02-21T06:37:34.594Z,102281.17
2019-02-21T06:40:07.830Z,102282.05
2019-02-21T06:42:42.067Z,102277.97
2019-02-21T06:45:18.032Z,102288.43
2019-02-21T06:47:50.276Z,102298.86
2019-02-21T06:50:26.679Z,102303.25
2019-02-21T06:52:58.465Z,102313.35
2019-02-21T06:55:31.702Z,102311.80
2019-02-21T06:58:04.964Z,102309.28
2019-02-21T07:00:39.276Z,102314.09
2019-02-21T07:03:15.716Z,102317.53
2019-02-21T07:05:47.452Z,102313.55
2019-02-21T07:08:20.694Z,102304.84
2019-02-21T07:10:53.932Z,102306.98
2019-02-21T07:13:27.206Z,102319.03
2019-02-21T07:16:00.409Z,102323.35
2019-02-21T07:18:33.655Z,102325.95
2019-02-21T07:21:06.898Z,102336.75
2019-02-21T07:23:43.435Z,102343.16
2019-02-21T07:26:15.083Z,102356.16
2019-02-21T07:28:48.325Z,102351.09
2019-02-21T07:31:28.837Z,102350.30
2019-02-21T07:33:56.500Z,102353.45
2019-02-21T07:36:29.750Z,102356.63
2019-02-21T07:39:16.475Z,102359.32
2019-02-21T07:41:41.459Z,102368.47
2019-02-21T07:44:14.669Z,102372.46
2019-02-21T07:46:47.902Z,102377.66
2019-02-21T07:49:21.144Z,102381.08
2019-02-21T07:51:54.386Z,102378.36
2019-02-21T07:54:27.631Z,102372.30
2019-02-21T07:57:01.827Z,102367.85
2019-02-21T07:59:35.300Z,102379.48
2019-02-21T08:02:08.540Z,102378.98
2019-02-21T08:04:41.789Z,102381.00
2019-02-21T08:07:15.019Z,102386.19
2019-02-21T08:09:48.277Z,102383.57
2019-02-21T08:12:23.247Z,102377.95
2019-02-21T08:14:56.748Z,102378.38
2019-02-21T08:17:30.007Z,102376.16
2019-02-21T08:20:08.241Z,102382.14
2019-02-21T08:22:39.042Z,102386.41
2019-02-21T08:25:12.315Z,102395.89
2019-02-21T08:27:45.549Z,102403.53
2019-02-21T08:30:19.889Z,102404.27
2019-02-21T08:32:53.092Z,102404.66
2019-02-21T08:35:26.588Z,102407.70
2019-02-21T08:37:59.816Z,102411.03
2019-02-21T08:40:33.065Z,102415.32
2019-02-21T08:43:06.298Z,102413.09
2019-02-21T08:45:39.546Z,102424.31
2019-02-21T08:48:13.627Z,102416.98
2019-02-21T08:50:47.879Z,102426.52
2019-02-21T08:53:21.115Z,102422.67
2019-02-21T08:55:55.996Z,102424.48
2019-02-21T08:58:29.388Z,102427.44
2019-02-21T09:01:02.642Z,102439.53
2019-02-21T09:03:35.868Z,102441.17
2019-02-21T09:06:09.121Z,102451.93
2019-02-21T09:08:42.356Z,102452.33
2019-02-21T09:11:15.602Z,102449.11
2019-02-21T09:13:48.830Z,102444.77
2019-02-21T09:16:22.070Z,102449.50
2019-02-21T09:18:55.302Z,102447.39
2019-02-21T09:21:28.838Z,102451.36
2019-02-21T09:24:02.081Z,102456.46
2019-02-21T09:26:35.330Z,102458.18
2019-02-21T09:29:08.570Z,102463.36
2019-02-21T09:31:41.799Z,102451.52
2019-02-21T09:34:21.194Z,102451.04
2019-02-21T09:36:49.978Z,102447.66
2019-02-21T09:39:23.210Z,102441.55
2019-02-21T09:41:56.463Z,102451.82
2019-02-21T09:44:29.697Z,102459.27
2019-02-21T09:47:02.951Z,102447.58
2019-02-21T09:49:36.182Z,102456.58
2019-02-21T09:52:09.470Z,102463.37
2019-02-21T09:54:42.700Z,102478.40
2019-02-21T09:57:15.945Z,102477.66
2019-02-21T09:59:49.172Z,102482.05
2019-02-21T10:02:23.119Z,102487.30
2019-02-21T10:05:04.468Z,102485.45
2019-02-21T10:07:31.490Z,102494.34
2019-02-21T10:10:13.115Z,102501.56
2019-02-21T10:12:46.349Z,102499.52
2019-02-21T10:15:19.608Z,102508.72
2019-02-21T10:17:52.824Z,102507.91
2019-02-21T10:20:26.051Z,102507.64
2019-02-21T10:22:59.293Z,102511.95
2019-02-21T10:25:32.526Z,102505.98
2019-02-21T10:28:05.779Z,102496.46
2019-02-21T10:30:39.005Z,102511.78
2019-02-21T10:33:12.252Z,102504.39
2019-02-21T10:35:45.484Z,102504.34
2019-02-21T10:38:18.720Z,102509.70
2019-02-21T10:40:52.278Z,102508.25
2019-02-21T10:43:25.517Z,102508.84
2019-02-21T10:45:58.750Z,102508.63
2019-02-21T10:48:31.982Z,102505.97
2019-02-21T10:51:05.210Z,102501.05
2019-02-21T10:53:38.451Z,102506.66
2019-02-21T10:56:11.694Z,102492.24
2019-02-21T10:58:44.918Z,102490.42
2019-02-21T11:01:18.144Z,102489.88
2019-02-21T11:03:51.398Z,102482.08
2019-02-21T11:06:24.633Z,102468.70
2019-02-21T11:08:57.879Z,102466.59
2019-02-21T11:11:31.112Z,102461.92
2019-02-21T11:14:04.366Z,102473.17
2019-02-21T11:16:37.685Z,102470.19
2019-02-21T11:19:10.920Z,102464.09
2019-02-21T11:21:44.152Z,102469.57
2019-02-21T11:24:17.384Z,102468.21
2019-02-21T11:26:50.621Z,102458.23
2019-02-21T11:29:23.864Z,102461.41
2019-02-21T11:31:57.094Z,102463.32
2019-02-21T11:34:30.339Z,102458.23
2019-02-21T11:37:03.570Z,102458.56
2019-02-21T11:39:36.818Z,102456.45
2019-02-21T11:42:10.045Z,102453.17
2019-02-21T11:44:43.290Z,102444.20
2019-02-21T11:47:16.522Z,102449.22
2019-02-21T11:49:49.781Z,102453.11
2019-02-21T11:52:23.004Z,102453.05
2019-02-21T11:54:56.235Z,102454.64
2019-02-21T11:57:29.470Z,102457.27
2019-02-21T12:00:04.732Z,102456.81
2019-02-21T12:02:39.122Z,102456.84
2019-02-21T12:05:17.375Z,102449.88
2019-02-21T12:07:47.304Z,102463.35
2019-02-21T12:10:20.552Z,102462.02
2019-02-21T12:12:53.801Z,102463.90
2019-02-21T12:15:27.196Z,102460.31
2019-02-21T12:18:00.436Z,102464.03
2019-02-21T12:20:33.672Z,102470.90
2019-02-21T12:23:06.906Z,102476.98
2019-02-21T12:25:40.144Z,102472.74
2019-02-21T12:28:13.374Z,102476.56
2019-02-21T12:30:46.619Z,102478.45
2019-02-21T12:33:19.853Z,102474.59
2019-02-21T12:35:53.090Z,102486.25
2019-02-21T12:38:26.321Z,102479.41
2019-02-21T12:41:02.241Z,102479.63
2019-02-21T12:43:34.498Z,102474.36
2019-02-21T12:46:07.736Z,102476.20
2019-02-21T12:48:40.973Z,102475.09
2019-02-21T12:51:14.215Z,102469.48
2019-02-21T12:53:47.441Z,102474.00
2019-02-21T12:56:20.672Z,102478.19
2019-02-21T12:58:53.896Z,102475.27
2019-02-21T13:01:27.127Z,102472.48
2019-02-21T13:04:00.350Z,102476.38
2019-02-21T13:06:34.676Z,102477.18
2019-02-21T13:09:07.909Z,102479.64
2019-02-21T13:11:42.777Z,102484.44
2019-02-21T13:14:16.007Z,102476.21
2019-02-21T13:16:49.245Z,102472.23
2019-02-21T13:19:22.479Z,102470.41
2019-02-21T13:21:55.728Z,102469.51
2019-02-21T13:24:28.963Z,102475.02
2019-02-21T13:27:02.218Z,102469.34
2019-02-21T13:29:35.446Z,102473.20
2019-02-21T13:32:08.684Z,102475.72
2019-02-21T13:34:41.914Z,102478.83
2019-02-21T13:37:15.156Z,102481.88
2019-02-21T13:39:48.387Z,102481.23
2019-02-21T13:42:21.632Z,102482.62
2019-02-21T13:44:54.863Z,102483.80
2019-02-21T13:47:28.095Z,102482.41
2019-02-21T13:50:01.337Z,102479.70
2019-02-21T13:52:34.566Z,102473.51
2019-02-21T13:55:07.871Z,102472.91
2019-02-21T13:57:41.370Z,102476.55
2019-02-21T14:00:21.777Z,102477.13
2019-02-21T14:02:55.017Z,102476.82
2019-02-21T14:05:28.247Z,102480.90
2019-02-21T14:08:01.487Z,102485.40
2019-02-21T14:10:34.887Z,102489.34
2019-02-21T14:13:08.134Z,102487.28
2019-02-21T14:15:41.359Z,102491.20
2019-02-21T14:18:14.637Z,102487.30
2019-02-21T14:20:47.883Z,102490.25
2019-02-21T14:23:21.110Z,102491.91
2019-02-21T14:25:54.362Z,102497.11
2019-02-21T14:28:27.584Z,102494.89
2019-02-21T14:31:00.816Z,102502.16
2019-02-21T14:33:34.053Z,102507.25
2019-02-21T14:36:15.234Z,102503.64
2019-02-21T14:38:42.238Z,102507.87
2019-02-21T14:41:15.470Z,102500.55
2019-02-21T14:43:48.720Z,102509.59
2019-02-21T14:46:21.955Z,102511.30
2019-02-21T14:48:55.193Z,102516.91
2019-02-21T14:51:28.417Z,102521.73
2019-02-21T14:54:01.652Z,102527.85
2019-02-21T14:56:34.891Z,102536.95
2019-02-21T14:59:09.106Z,102536.59
2019-02-21T15:01:42.333Z,102540.57
2019-02-21T15:04:15.586Z,102544.48
2019-02-21T15:06:48.811Z,102552.30
2019-02-21T15:09:22.057Z,102555.34
2019-02-21T15:11:55.570Z,102558.95
2019-02-21T15:14:28.841Z,102556.90
2019-02-21T15:17:03.905Z,102557.77
2019-02-21T15:19:37.030Z,102549.95
2019-02-21T15:22:10.260Z,102555.96
2019-02-21T15:24:43.507Z,102560.68
2019-02-21T15:27:16.733Z,102555.37
2019-02-21T15:29:49.976Z,102556.62
2019-02-21T15:32:23.204Z,102558.28
2019-02-21T15:34:56.444Z,102556.05
2019-02-21T15:37:29.935Z,102556.91
2019-02-21T15:40:04.322Z,102548.33
2019-02-21T15:42:37.548Z,102551.38
2019-02-21T15:45:23.454Z,102550.58
2019-02-21T15:47:54.882Z,102553.71
2019-02-21T15:50:28.137Z,102563.30
2019-02-21T15:53:01.361Z,102559.09
2019-02-21T15:55:34.599Z,102562.98
2019-02-21T15:58:07.823Z,102565.19
2019-02-21T16:00:41.089Z,102571.34
2019-02-21T16:03:14.333Z,102574.38
2019-02-21T16:05:47.569Z,102579.02
2019-02-21T16:08:20.801Z,102579.81
2019-02-21T16:10:54.037Z,102579.70
2019-02-21T16:13:27.457Z,102587.42
2019-02-21T16:16:00.923Z,102584.89
2019-02-21T16:18:34.162Z,102592.42
2019-02-21T16:21:07.409Z,102591.12
2019-02-21T16:23:40.638Z,102604.66
2019-02-21T16:26:13.886Z,102605.59
2019-02-21T16:28:47.112Z,102602.92
2019-02-21T16:31:20.355Z,102605.52
2019-02-21T16:33:55.218Z,102611.98
2019-02-21T16:36:28.453Z,102610.27
2019-02-21T16:39:04.314Z,102613.69
2019-02-21T16:41:38.237Z,102616.09
2019-02-21T16:44:11.468Z,102612.51
2019-02-21T16:46:44.697Z,102614.84
2019-02-21T16:49:17.948Z,102612.78
2019-02-21T16:51:51.179Z,102622.14
2019-02-21T16:54:24.418Z,102625.73
2019-02-21T16:56:57.652Z,102622.84
2019-02-21T16:59:30.884Z,102631.64
2019-02-21T17:02:04.113Z,102615.88
2019-02-21T17:04:37.349Z,102639.56
2019-02-21T17:07:15.192Z,102645.23
2019-02-21T17:09:45.527Z,102647.36
2019-02-21T17:12:18.763Z,102652.08
2019-02-21T17:14:52.052Z,102660.72
2019-02-21T17:17:25.260Z,102665.49
2019-02-21T17:19:58.490Z,102669.08
2019-02-21T17:22:31.770Z,102680.16
2019-02-21T17:25:07.904Z,102673.53
2019-02-21T17:27:41.154Z,102675.23
2019-02-21T17:30:17.824Z,102679.89
2019-02-21T17:32:51.062Z,102688.61
2019-02-21T17:35:24.299Z,102684.20
2019-02-21T17:37:57.545Z,102692.81
2019-02-21T17:40:30.775Z,102695.33
2019-02-21T17:43:04.046Z,102693.89
2019-02-21T17:45:37.268Z,102696.31
2019-02-21T17:48:10.510Z,102700.52
2019-02-21T17:50:43.741Z,102699.25
2019-02-21T17:53:16.982Z,102701.45
2019-02-21T17:55:50.224Z,102701.09
2019-02-21T17:58:23.478Z,102706.42
2019-02-21T18:00:56.700Z,102710.10
2019-02-21T18:03:29.958Z,102721.00
2019-02-21T18:06:03.189Z,102723.53
2019-02-21T18:08:36.431Z,102727.76
2019-02-21T18:11:09.661Z,102729.27
2019-02-21T18:13:42.905Z,102732.69
2019-02-21T18:16:16.137Z,102728.61
2019-02-21T18:18:49.372Z,102737.26
2019-02-21T18:21:22.601Z,102740.80
2019-02-21T18:23:55.855Z,102734.81
2019-02-21T18:26:29.080Z,102737.39
2019-02-21T18:29:02.324Z,102740.06
2019-02-21T18:31:35.567Z,102741.42
2019-02-21T18:34:09.779Z,102744.79
2019-02-21T18:36:43.009Z,102745.16
2019-02-21T18:39:16.250Z,102751.24
2019-02-21T18:41:49.477Z,102751.89
2019-02-21T18:44:22.707Z,102758.97
2019-02-21T18:46:57.010Z,102752.42
2019-02-21T18:49:30.249Z,102758.91
2019-02-21T18:52:03.483Z,102755.59
2019-02-21T18:54:36.722Z,102753.44
2019-02-21T18:57:12.258Z,102752.97
2019-02-21T18:59:44.897Z,102762.87
2019-02-21T19:02:19.861Z,102757.52
2019-02-21T19:04:53.150Z,102759.97
2019-02-21T19:07:26.391Z,102762.02
2019-02-21T19:10:00.609Z,102767.09
2019-02-21T19:12:33.835Z,102765.64
2019-02-21T19:15:08.614Z,102768.14
2019-02-21T19:17:41.839Z,102765.55
2019-02-21T19:20:19.167Z,102770.84
2019-02-21T19:22:53.370Z,102775.19
2019-02-21T19:25:27.190Z,102782.97
2019-02-21T19:28:00.420Z,102777.62
2019-02-21T19:30:39.558Z,102776.69
2019-02-21T19:33:12.795Z,102790.84
2019-02-21T19:35:48.496Z,102788.92
2019-02-21T19:38:20.978Z,102795.38
2019-02-21T19:40:54.229Z,102795.28
2019-02-21T19:43:27.456Z,102792.97
2019-02-21T19:46:01.675Z,102788.95
2019-02-21T19:48:34.908Z,102799.68
2019-02-21T19:51:08.153Z,102795.69
2019-02-21T19:53:41.384Z,102795.16
2019-02-21T19:56:14.620Z,102790.75
2019-02-21T19:58:47.848Z,102802.39
2019-02-21T20:01:21.098Z,102810.98
2019-02-21T20:03:54.324Z,102814.31
2019-02-21T20:06:27.567Z,102816.45
2019-02-21T20:09:00.798Z,102809.33
2019-02-21T20:11:36.042Z,102821.95
2019-02-21T20:14:09.360Z,102813.22
2019-02-21T20:16:42.600Z,102808.42
2019-02-21T20:19:15.829Z,102809.72
2019-02-21T20:21:49.095Z,102815.75
2019-02-21T20:24:22.322Z,102814.38
2019-02-21T20:26:55.578Z,102818.69
2019-02-21T20:29:28.813Z,102816.59
2019-02-21T20:32:02.072Z,102821.31
2019-02-21T20:34:35.770Z,102826.08
2019-02-21T20:37:09.017Z,102825.56
2019-02-21T20:39:42.251Z,102832.57
2019-02-21T20:42:16.480Z,102835.93
2019-02-21T20:44:49.709Z,102836.77
2019-02-21T20:47:24.021Z,102835.48
2019-02-21T20:49:57.262Z,102837.23
2019-02-21T21:11:58.136Z,102837.55
2019-02-21T21:14:31.368Z,102848.74
2019-02-21T21:17:04.628Z,102857.98
2019-02-21T21:19:37.865Z,102865.39
2019-02-21T21:22:11.109Z,102872.74
2019-02-21T21:24:44.344Z,102879.10
2019-02-21T21:27:17.590Z,102888.11
2019-02-21T21:29:50.826Z,102886.68
2019-02-21T21:32:24.067Z,102888.92
2019-02-21T21:34:57.303Z,102894.61
2019-02-21T21:37:30.552Z,102895.91
2019-02-21T21:40:09.789Z,102890.71
2019-02-21T21:42:43.045Z,102899.23
2019-02-21T21:45:17.217Z,102910.08
2019-02-21T21:47:50.466Z,102913.90
2019-02-21T21:50:23.697Z,102909.97
2019-02-21T21:52:56.950Z,102911.16
2019-02-21T21:55:30.178Z,102914.67
2019-02-21T21:58:03.433Z,102917.23
2019-02-21T22:00:36.659Z,102917.20
2019-02-21T22:03:09.913Z,102917.55
2019-02-21T22:05:43.150Z,102926.94
2019-02-21T22:08:16.393Z,102924.31
2019-02-21T22:10:49.629Z,102922.59
2019-02-21T22:13:22.870Z,102922.87
2019-02-21T22:15:56.108Z,102931.91
2019-02-21T22:18:29.359Z,102925.00
2019-02-21T22:21:02.587Z,102926.27
2019-02-21T22:23:36.791Z,102930.96
2019-02-21T22:26:10.030Z,102936.46
2019-02-21T22:28:43.284Z,102937.52
2019-02-21T22:31:16.523Z,102939.70
2019-02-21T22:33:49.762Z,102941.83
2019-02-21T22:36:23.075Z,102941.27
2019-02-21T22:38:56.322Z,102939.47
2019-02-21T22:41:29.551Z,102943.78
2019-02-21T22:44:02.807Z,102951.08
2019-02-21T22:46:36.058Z,102949.20
2019-02-21T22:49:09.268Z,102956.11
2019-02-21T22:51:42.502Z,102956.49
2019-02-21T22:54:15.761Z,102964.73
2019-02-21T22:56:49.000Z,102967.33
2019-02-21T22:59:22.252Z,102968.51
2019-02-21T23:01:56.522Z,102971.41
2019-02-21T23:04:33.472Z,102977.81
2019-02-21T23:07:12.611Z,102986.47
2019-02-21T23:09:45.862Z,102981.17
2019-02-21T23:12:19.093Z,102988.03
2019-02-21T23:14:52.335Z,102980.59
2019-02-21T23:17:25.585Z,102983.14
2019-02-21T23:19:58.812Z,102987.84
2019-02-21T23:22:32.042Z,102991.73
2019-02-21T23:25:06.038Z,102993.40
2019-02-21T23:27:39.275Z,102995.53
2019-02-21T23:30:12.515Z,103002.48
2019-02-21T23:32:45.822Z,103001.98
2019-02-21T23:35:19.068Z,102999.80
2019-02-21T23:37:53.382Z,102998.92
2019-02-21T23:40:26.685Z,103001.09
2019-02-21T23:42:59.857Z,102999.77
2019-02-21T23:45:33.103Z,103012.73
2019-02-21T23:48:06.328Z,103011.81
2019-02-21T23:50:39.569Z,103010.17
2019-02-21T23:53:12.799Z,103011.47
2019-02-21T23:55:46.045Z,103013.61
2019-02-21T23:58:19.272Z,103010.52
